sensor_id;sensor_type;location;lat;lon;timestamp;P1;durP1;ratioP1;P2;durP2;ratioP2
13999;SDS011;7075;53.574;10.054;2023-01-10T00:01:50;944.53;;;878.87;;
13999;SDS011;7075;53.574;10.054;2023-01-10T00:04:15;963.28;;;895.53;;
13999;SDS011;7075;53.574;10.054;2023-01-10T00:06:41;954.83;;;888.87;;
13999;SDS011;7075;53.574;10.054;2023-01-10T00:09:08;919.67;;;856.00;;
13999;SDS011;7075;53.574;10.054;2023-01-10T00:11:34;906.92;;;844.70;;
13999;SDS011;7075;53.574;10.054;2023-01-10T00:14:18;922.97;;;860.42;;
13999;SDS011;7075;53.574;10.054;2023-01-10T00:16:44;905.30;;;843.35;;
13999;SDS011;7075;53.574;10.054;2023-01-10T00:19:10;926.80;;;863.50;;
13999;SDS011;7075;53.574;10.054;2023-01-10T00:21:36;892.75;;;832.45;;
13999;SDS011;7075;53.574;10.054;2023-01-10T00:24:03;860.42;;;803.13;;
13999;SDS011;7075;53.574;10.054;2023-01-10T00:26:41;847.10;;;791.00;;
13999;SDS011;7075;53.574;10.054;2023-01-10T00:29:08;867.80;;;810.38;;
13999;SDS011;7075;53.574;10.054;2023-01-10T00:31:34;813.23;;;760.23;;
13999;SDS011;7075;53.574;10.054;2023-01-10T00:34:00;847.93;;;792.50;;
13999;SDS011;7075;53.574;10.054;2023-01-10T00:36:26;842.10;;;786.30;;
13999;SDS011;7075;53.574;10.054;2023-01-10T00:38:52;819.97;;;767.20;;
13999;SDS011;7075;53.574;10.054;2023-01-10T00:41:17;853.00;;;797.23;;
13999;SDS011;7075;53.574;10.054;2023-01-10T00:44:01;848.83;;;793.00;;
13999;SDS011;7075;53.574;10.054;2023-01-10T00:46:27;839.33;;;784.13;;
13999;SDS011;7075;53.574;10.054;2023-01-10T00:48:53;839.07;;;783.90;;
13999;SDS011;7075;53.574;10.054;2023-01-10T00:51:20;814.63;;;761.80;;
13999;SDS011;7075;53.574;10.054;2023-01-10T00:53:45;824.63;;;771.10;;
13999;SDS011;7075;53.574;10.054;2023-01-10T00:56:11;827.35;;;772.83;;
13999;SDS011;7075;53.574;10.054;2023-01-10T00:58:37;845.38;;;790.72;;
13999;SDS011;7075;53.574;10.054;2023-01-10T01:01:03;865.25;;;808.22;;
13999;SDS011;7075;53.574;10.054;2023-01-10T01:03:29;839.40;;;784.20;;
13999;SDS011;7075;53.574;10.054;2023-01-10T01:05:55;803.13;;;751.33;;
13999;SDS011;7075;53.574;10.054;2023-01-10T01:08:20;804.63;;;752.47;;
13999;SDS011;7075;53.574;10.054;2023-01-10T01:10:46;780.95;;;730.78;;
13999;SDS011;7075;53.574;10.054;2023-01-10T01:13:16;785.50;;;734.63;;
13999;SDS011;7075;53.574;10.054;2023-01-10T01:15:43;791.22;;;740.13;;
13999;SDS011;7075;53.574;10.054;2023-01-10T01:18:11;775.42;;;726.25;;
13999;SDS011;7075;53.574;10.054;2023-01-10T01:20:38;724.63;;;679.15;;
13999;SDS011;7075;53.574;10.054;2023-01-10T01:23:05;716.72;;;672.70;;
13999;SDS011;7075;53.574;10.054;2023-01-10T01:25:30;740.17;;;693.85;;
13999;SDS011;7075;53.574;10.054;2023-01-10T01:27:56;724.93;;;680.10;;
13999;SDS011;7075;53.574;10.054;2023-01-10T01:30:22;743.23;;;696.70;;
13999;SDS011;7075;53.574;10.054;2023-01-10T01:32:48;746.00;;;699.17;;
13999;SDS011;7075;53.574;10.054;2023-01-10T01:35:14;755.20;;;706.87;;
13999;SDS011;7075;53.574;10.054;2023-01-10T01:37:40;696.63;;;653.88;;
13999;SDS011;7075;53.574;10.054;2023-01-10T01:40:08;702.60;;;659.55;;
13999;SDS011;7075;53.574;10.054;2023-01-10T01:42:38;706.65;;;663.20;;
13999;SDS011;7075;53.574;10.054;2023-01-10T01:47:34;728.63;;;683.42;;
13999;SDS011;7075;53.574;10.054;2023-01-10T01:50:09;747.27;;;700.63;;
13999;SDS011;7075;53.574;10.054;2023-01-10T01:52:45;736.42;;;690.03;;
13999;SDS011;7075;53.574;10.054;2023-01-10T01:55:15;737.78;;;691.85;;
13999;SDS011;7075;53.574;10.054;2023-01-10T01:57:41;703.60;;;660.17;;
13999;SDS011;7075;53.574;10.054;2023-01-10T02:00:08;711.80;;;667.93;;
13999;SDS011;7075;53.574;10.054;2023-01-10T02:02:35;710.07;;;666.13;;
13999;SDS011;7075;53.574;10.054;2023-01-10T02:05:08;703.67;;;660.35;;
13999;SDS011;7075;53.574;10.054;2023-01-10T02:07:36;705.15;;;661.75;;
13999;SDS011;7075;53.574;10.054;2023-01-10T02:10:16;708.83;;;665.15;;
13999;SDS011;7075;53.574;10.054;2023-01-10T02:12:46;717.85;;;672.92;;
13999;SDS011;7075;53.574;10.054;2023-01-10T02:15:14;710.35;;;666.50;;
13999;SDS011;7075;53.574;10.054;2023-01-10T02:17:41;713.03;;;668.33;;
13999;SDS011;7075;53.574;10.054;2023-01-10T02:20:10;710.67;;;666.58;;
13999;SDS011;7075;53.574;10.054;2023-01-10T02:33:33;697.45;;;654.92;;
13999;SDS011;7075;53.574;10.054;2023-01-10T02:38:59;692.17;;;649.50;;
13999;SDS011;7075;53.574;10.054;2023-01-10T02:44:33;687.97;;;645.95;;
13999;SDS011;7075;53.574;10.054;2023-01-10T02:47:03;695.13;;;652.50;;
13999;SDS011;7075;53.574;10.054;2023-01-10T02:49:39;714.45;;;669.83;;
13999;SDS011;7075;53.574;10.054;2023-01-10T02:52:06;723.90;;;678.85;;
13999;SDS011;7075;53.574;10.054;2023-01-10T02:54:32;707.90;;;663.72;;
13999;SDS011;7075;53.574;10.054;2023-01-10T02:57:14;710.28;;;666.13;;
13999;SDS011;7075;53.574;10.054;2023-01-10T03:03:12;722.63;;;677.35;;
13999;SDS011;7075;53.574;10.054;2023-01-10T03:06:10;709.05;;;664.97;;
13999;SDS011;7075;53.574;10.054;2023-01-10T03:09:02;710.88;;;666.50;;
13999;SDS011;7075;53.574;10.054;2023-01-10T03:11:40;707.33;;;663.50;;
13999;SDS011;7075;53.574;10.054;2023-01-10T03:14:27;715.13;;;671.17;;
13999;SDS011;7075;53.574;10.054;2023-01-10T03:16:56;713.10;;;668.47;;
13999;SDS011;7075;53.574;10.054;2023-01-10T03:19:30;711.40;;;667.17;;
13999;SDS011;7075;53.574;10.054;2023-01-10T03:22:02;710.78;;;666.42;;
13999;SDS011;7075;53.574;10.054;2023-01-10T03:24:33;702.03;;;658.67;;
13999;SDS011;7075;53.574;10.054;2023-01-10T03:27:06;712.85;;;668.60;;
13999;SDS011;7075;53.574;10.054;2023-01-10T03:30:24;713.70;;;669.40;;
13999;SDS011;7075;53.574;10.054;2023-01-10T03:32:30;703.35;;;659.97;;
13999;SDS011;7075;53.574;10.054;2023-01-10T03:34:57;704.35;;;660.70;;
13999;SDS011;7075;53.574;10.054;2023-01-10T03:37:33;729.30;;;683.72;;
13999;SDS011;7075;53.574;10.054;2023-01-10T03:40:16;711.10;;;666.65;;
13999;SDS011;7075;53.574;10.054;2023-01-10T03:42:56;705.90;;;662.73;;
13999;SDS011;7075;53.574;10.054;2023-01-10T03:45:49;709.10;;;665.40;;
13999;SDS011;7075;53.574;10.054;2023-01-10T03:48:22;714.28;;;669.90;;
13999;SDS011;7075;53.574;10.054;2023-01-10T03:50:50;717.55;;;672.97;;
13999;SDS011;7075;53.574;10.054;2023-01-10T03:53:16;714.97;;;670.80;;
13999;SDS011;7075;53.574;10.054;2023-01-10T03:55:42;727.67;;;683.05;;
13999;SDS011;7075;53.574;10.054;2023-01-10T03:58:09;730.85;;;685.40;;
13999;SDS011;7075;53.574;10.054;2023-01-10T04:00:34;718.47;;;673.93;;
13999;SDS011;7075;53.574;10.054;2023-01-10T04:03:00;730.50;;;685.13;;
13999;SDS011;7075;53.574;10.054;2023-01-10T04:05:26;729.95;;;683.63;;
13999;SDS011;7075;53.574;10.054;2023-01-10T04:11:14;725.92;;;680.45;;
13999;SDS011;7075;53.574;10.054;2023-01-10T04:13:40;734.33;;;688.43;;
13999;SDS011;7075;53.574;10.054;2023-01-10T04:16:06;729.83;;;683.28;;
13999;SDS011;7075;53.574;10.054;2023-01-10T04:18:32;736.67;;;690.20;;
13999;SDS011;7075;53.574;10.054;2023-01-10T04:20:57;739.83;;;693.03;;
13999;SDS011;7075;53.574;10.054;2023-01-10T04:23:23;743.30;;;696.17;;
13999;SDS011;7075;53.574;10.054;2023-01-10T04:25:49;734.73;;;688.13;;
13999;SDS011;7075;53.574;10.054;2023-01-10T04:28:14;735.23;;;688.83;;
13999;SDS011;7075;53.574;10.054;2023-01-10T04:30:40;735.33;;;689.10;;
13999;SDS011;7075;53.574;10.054;2023-01-10T04:33:05;740.97;;;693.60;;
13999;SDS011;7075;53.574;10.054;2023-01-10T04:35:31;744.10;;;697.13;;
13999;SDS011;7075;53.574;10.054;2023-01-10T04:37:57;748.20;;;700.43;;
13999;SDS011;7075;53.574;10.054;2023-01-10T04:40:22;740.43;;;693.50;;
13999;SDS011;7075;53.574;10.054;2023-01-10T04:42:48;742.67;;;694.67;;
13999;SDS011;7075;53.574;10.054;2023-01-10T04:45:14;733.85;;;687.40;;
13999;SDS011;7075;53.574;10.054;2023-01-10T04:47:41;741.63;;;694.55;;
13999;SDS011;7075;53.574;10.054;2023-01-10T04:50:07;741.83;;;694.90;;
13999;SDS011;7075;53.574;10.054;2023-01-10T04:52:33;751.45;;;702.92;;
13999;SDS011;7075;53.574;10.054;2023-01-10T04:54:59;725.00;;;679.90;;
13999;SDS011;7075;53.574;10.054;2023-01-10T04:57:24;749.08;;;701.28;;
13999;SDS011;7075;53.574;10.054;2023-01-10T04:59:50;736.70;;;690.43;;
13999;SDS011;7075;53.574;10.054;2023-01-10T05:02:15;742.87;;;696.00;;
13999;SDS011;7075;53.574;10.054;2023-01-10T05:04:41;734.75;;;688.35;;
13999;SDS011;7075;53.574;10.054;2023-01-10T05:07:07;735.40;;;689.63;;
13999;SDS011;7075;53.574;10.054;2023-01-10T05:09:32;731.53;;;686.07;;
13999;SDS011;7075;53.574;10.054;2023-01-10T05:11:58;739.58;;;692.85;;
13999;SDS011;7075;53.574;10.054;2023-01-10T05:14:23;735.85;;;689.20;;
13999;SDS011;7075;53.574;10.054;2023-01-10T05:16:49;749.00;;;701.67;;
13999;SDS011;7075;53.574;10.054;2023-01-10T05:19:14;751.03;;;703.60;;
13999;SDS011;7075;53.574;10.054;2023-01-10T05:21:41;772.67;;;723.65;;
13999;SDS011;7075;53.574;10.054;2023-01-10T05:24:07;778.25;;;728.08;;
13999;SDS011;7075;53.574;10.054;2023-01-10T05:26:33;770.80;;;721.90;;
13999;SDS011;7075;53.574;10.054;2023-01-10T05:28:59;749.53;;;702.73;;
13999;SDS011;7075;53.574;10.054;2023-01-10T05:31:24;745.73;;;698.77;;
13999;SDS011;7075;53.574;10.054;2023-01-10T05:33:50;735.63;;;689.80;;
13999;SDS011;7075;53.574;10.054;2023-01-10T05:36:16;742.63;;;696.60;;
13999;SDS011;7075;53.574;10.054;2023-01-10T05:38:43;730.92;;;685.38;;
13999;SDS011;7075;53.574;10.054;2023-01-10T05:41:09;737.70;;;691.92;;
13999;SDS011;7075;53.574;10.054;2023-01-10T05:43:35;747.07;;;699.80;;
13999;SDS011;7075;53.574;10.054;2023-01-10T05:46:00;738.70;;;692.60;;
13999;SDS011;7075;53.574;10.054;2023-01-10T05:48:26;749.55;;;701.72;;
13999;SDS011;7075;53.574;10.054;2023-01-10T05:50:51;726.50;;;681.33;;
13999;SDS011;7075;53.574;10.054;2023-01-10T05:53:18;737.08;;;690.60;;
13999;SDS011;7075;53.574;10.054;2023-01-10T05:55:51;747.23;;;698.70;;
13999;SDS011;7075;53.574;10.054;2023-01-10T05:58:17;735.05;;;688.92;;
13999;SDS011;7075;53.574;10.054;2023-01-10T06:00:43;744.85;;;697.10;;
13999;SDS011;7075;53.574;10.054;2023-01-10T06:03:08;741.00;;;694.73;;
13999;SDS011;7075;53.574;10.054;2023-01-10T06:05:34;739.10;;;692.57;;
13999;SDS011;7075;53.574;10.054;2023-01-10T06:07:59;730.85;;;685.35;;
13999;SDS011;7075;53.574;10.054;2023-01-10T06:10:25;724.83;;;679.47;;
13999;SDS011;7075;53.574;10.054;2023-01-10T06:12:50;727.50;;;682.00;;
13999;SDS011;7075;53.574;10.054;2023-01-10T06:15:16;734.40;;;687.42;;
13999;SDS011;7075;53.574;10.054;2023-01-10T06:17:42;752.45;;;704.15;;
13999;SDS011;7075;53.574;10.054;2023-01-10T06:20:09;735.60;;;688.65;;
13999;SDS011;7075;53.574;10.054;2023-01-10T06:22:35;746.85;;;698.83;;
13999;SDS011;7075;53.574;10.054;2023-01-10T06:25:03;728.30;;;682.17;;
13999;SDS011;7075;53.574;10.054;2023-01-10T06:27:29;743.50;;;696.05;;
13999;SDS011;7075;53.574;10.054;2023-01-10T06:29:55;738.25;;;690.92;;
13999;SDS011;7075;53.574;10.054;2023-01-10T06:32:20;748.33;;;700.58;;
13999;SDS011;7075;53.574;10.054;2023-01-10T06:34:46;736.67;;;690.10;;
13999;SDS011;7075;53.574;10.054;2023-01-10T06:37:11;727.83;;;681.80;;
13999;SDS011;7075;53.574;10.054;2023-01-10T06:39:37;724.92;;;679.10;;
13999;SDS011;7075;53.574;10.054;2023-01-10T06:42:03;739.40;;;692.13;;
13999;SDS011;7075;53.574;10.054;2023-01-10T06:44:29;731.00;;;684.95;;
13999;SDS011;7075;53.574;10.054;2023-01-10T06:46:55;725.33;;;680.03;;
13999;SDS011;7075;53.574;10.054;2023-01-10T06:49:20;725.20;;;679.60;;
13999;SDS011;7075;53.574;10.054;2023-01-10T06:51:46;756.03;;;707.37;;
13999;SDS011;7075;53.574;10.054;2023-01-10T06:54:11;745.87;;;698.40;;
13999;SDS011;7075;53.574;10.054;2023-01-10T06:56:37;745.55;;;697.78;;
13999;SDS011;7075;53.574;10.054;2023-01-10T06:59:02;739.58;;;692.78;;
13999;SDS011;7075;53.574;10.054;2023-01-10T07:01:28;760.03;;;710.90;;
13999;SDS011;7075;53.574;10.054;2023-01-10T07:03:53;746.87;;;698.93;;
13999;SDS011;7075;53.574;10.054;2023-01-10T07:06:19;737.35;;;690.50;;
13999;SDS011;7075;53.574;10.054;2023-01-10T07:08:45;743.17;;;695.75;;
13999;SDS011;7075;53.574;10.054;2023-01-10T07:11:12;734.20;;;687.63;;
13999;SDS011;7075;53.574;10.054;2023-01-10T07:13:39;732.70;;;686.13;;
13999;SDS011;7075;53.574;10.054;2023-01-10T07:18:35;721.15;;;676.05;;
13999;SDS011;7075;53.574;10.054;2023-01-10T07:21:02;712.17;;;668.35;;
13999;SDS011;7075;53.574;10.054;2023-01-10T07:23:28;715.45;;;670.63;;
13999;SDS011;7075;53.574;10.054;2023-01-10T07:25:57;726.17;;;680.70;;
13999;SDS011;7075;53.574;10.054;2023-01-10T07:28:27;732.67;;;686.20;;
13999;SDS011;7075;53.574;10.054;2023-01-10T07:30:52;741.67;;;694.30;;
13999;SDS011;7075;53.574;10.054;2023-01-10T07:33:18;731.20;;;685.03;;
13999;SDS011;7075;53.574;10.054;2023-01-10T07:35:43;746.93;;;699.07;;
13999;SDS011;7075;53.574;10.054;2023-01-10T07:38:09;751.47;;;703.43;;
13999;SDS011;7075;53.574;10.054;2023-01-10T07:40:34;746.00;;;697.97;;
13999;SDS011;7075;53.574;10.054;2023-01-10T07:43:01;740.47;;;692.95;;
13999;SDS011;7075;53.574;10.054;2023-01-10T07:45:27;743.35;;;696.22;;
13999;SDS011;7075;53.574;10.054;2023-01-10T07:47:55;736.58;;;689.28;;
13999;SDS011;7075;53.574;10.054;2023-01-10T07:50:21;735.78;;;689.20;;
13999;SDS011;7075;53.574;10.054;2023-01-10T07:52:47;726.70;;;681.27;;
13999;SDS011;7075;53.574;10.054;2023-01-10T07:55:12;722.53;;;677.43;;
13999;SDS011;7075;53.574;10.054;2023-01-10T07:57:38;737.60;;;691.33;;
13999;SDS011;7075;53.574;10.054;2023-01-10T08:00:04;727.05;;;681.88;;
13999;SDS011;7075;53.574;10.054;2023-01-10T08:02:30;733.13;;;686.67;;
13999;SDS011;7075;53.574;10.054;2023-01-10T08:04:55;745.38;;;697.80;;
13999;SDS011;7075;53.574;10.054;2023-01-10T08:07:21;741.37;;;694.13;;
13999;SDS011;7075;53.574;10.054;2023-01-10T08:09:46;718.37;;;673.90;;
13999;SDS011;7075;53.574;10.054;2023-01-10T08:12:12;742.93;;;695.90;;
13999;SDS011;7075;53.574;10.054;2023-01-10T08:14:37;720.53;;;675.22;;
13999;SDS011;7075;53.574;10.054;2023-01-10T08:17:03;742.05;;;695.33;;
13999;SDS011;7075;53.574;10.054;2023-01-10T08:19:29;749.03;;;701.73;;
13999;SDS011;7075;53.574;10.054;2023-01-10T08:21:54;739.17;;;692.30;;
13999;SDS011;7075;53.574;10.054;2023-01-10T08:24:20;753.78;;;706.53;;
13999;SDS011;7075;53.574;10.054;2023-01-10T08:26:46;755.07;;;707.73;;
13999;SDS011;7075;53.574;10.054;2023-01-10T08:29:13;741.92;;;695.65;;
13999;SDS011;7075;53.574;10.054;2023-01-10T08:31:39;732.80;;;686.67;;
13999;SDS011;7075;53.574;10.054;2023-01-10T08:34:05;725.88;;;680.58;;
13999;SDS011;7075;53.574;10.054;2023-01-10T08:36:31;716.58;;;671.55;;
13999;SDS011;7075;53.574;10.054;2023-01-10T08:38:56;732.17;;;686.30;;
13999;SDS011;7075;53.574;10.054;2023-01-10T08:41:22;723.15;;;677.97;;
13999;SDS011;7075;53.574;10.054;2023-01-10T08:43:48;730.40;;;684.43;;
13999;SDS011;7075;53.574;10.054;2023-01-10T08:46:14;732.90;;;686.38;;
13999;SDS011;7075;53.574;10.054;2023-01-10T08:48:40;738.10;;;690.78;;
13999;SDS011;7075;53.574;10.054;2023-01-10T08:51:07;732.67;;;685.83;;
13999;SDS011;7075;53.574;10.054;2023-01-10T08:53:33;731.00;;;684.80;;
13999;SDS011;7075;53.574;10.054;2023-01-10T08:55:59;714.25;;;669.30;;
13999;SDS011;7075;53.574;10.054;2023-01-10T08:58:25;745.45;;;697.67;;
13999;SDS011;7075;53.574;10.054;2023-01-10T09:00:51;731.33;;;685.22;;
13999;SDS011;7075;53.574;10.054;2023-01-10T09:03:17;710.85;;;666.53;;
13999;SDS011;7075;53.574;10.054;2023-01-10T09:05:45;746.00;;;699.23;;
13999;SDS011;7075;53.574;10.054;2023-01-10T09:08:11;754.03;;;705.73;;
13999;SDS011;7075;53.574;10.054;2023-01-10T09:10:36;738.27;;;690.80;;
13999;SDS011;7075;53.574;10.054;2023-01-10T09:13:02;757.95;;;709.92;;
13999;SDS011;7075;53.574;10.054;2023-01-10T09:15:33;746.15;;;699.17;;
13999;SDS011;7075;53.574;10.054;2023-01-10T09:18:01;721.65;;;676.50;;
13999;SDS011;7075;53.574;10.054;2023-01-10T09:20:32;740.57;;;693.30;;
13999;SDS011;7075;53.574;10.054;2023-01-10T09:23:03;722.35;;;676.58;;
13999;SDS011;7075;53.574;10.054;2023-01-10T09:25:47;727.00;;;680.93;;
13999;SDS011;7075;53.574;10.054;2023-01-10T09:28:15;727.88;;;681.60;;
13999;SDS011;7075;53.574;10.054;2023-01-10T09:30:42;726.78;;;680.38;;
13999;SDS011;7075;53.574;10.054;2023-01-10T09:33:09;725.37;;;679.07;;
13999;SDS011;7075;53.574;10.054;2023-01-10T09:35:36;738.95;;;692.10;;
13999;SDS011;7075;53.574;10.054;2023-01-10T09:38:04;721.47;;;675.95;;
13999;SDS011;7075;53.574;10.054;2023-01-10T09:40:43;724.42;;;678.92;;
13999;SDS011;7075;53.574;10.054;2023-01-10T09:43:36;721.53;;;675.63;;
13999;SDS011;7075;53.574;10.054;2023-01-10T09:49:05;708.65;;;664.17;;
13999;SDS011;7075;53.574;10.054;2023-01-10T09:51:49;700.90;;;657.22;;
13999;SDS011;7075;53.574;10.054;2023-01-10T09:54:27;725.70;;;680.50;;
13999;SDS011;7075;53.574;10.054;2023-01-10T09:56:56;717.33;;;672.47;;
13999;SDS011;7075;53.574;10.054;2023-01-10T09:59:25;739.38;;;692.80;;
13999;SDS011;7075;53.574;10.054;2023-01-10T10:02:03;766.47;;;718.03;;
13999;SDS011;7075;53.574;10.054;2023-01-10T10:04:41;741.93;;;695.07;;
13999;SDS011;7075;53.574;10.054;2023-01-10T10:07:13;743.50;;;696.60;;
13999;SDS011;7075;53.574;10.054;2023-01-10T10:09:41;749.67;;;701.50;;
13999;SDS011;7075;53.574;10.054;2023-01-10T10:15:26;740.88;;;693.58;;
13999;SDS011;7075;53.574;10.054;2023-01-10T10:26:17;728.23;;;682.13;;
13999;SDS011;7075;53.574;10.054;2023-01-10T10:31:31;724.37;;;678.47;;
13999;SDS011;7075;53.574;10.054;2023-01-10T10:37:20;708.20;;;663.00;;
13999;SDS011;7075;53.574;10.054;2023-01-10T10:40:00;719.47;;;673.80;;
13999;SDS011;7075;53.574;10.054;2023-01-10T10:42:40;708.03;;;663.72;;
13999;SDS011;7075;53.574;10.054;2023-01-10T10:45:18;728.95;;;682.50;;
13999;SDS011;7075;53.574;10.054;2023-01-10T10:48:30;713.75;;;668.70;;
13999;SDS011;7075;53.574;10.054;2023-01-10T10:50:43;720.63;;;675.13;;
13999;SDS011;7075;53.574;10.054;2023-01-10T10:53:18;720.35;;;674.45;;
13999;SDS011;7075;53.574;10.054;2023-01-10T10:55:46;722.75;;;677.20;;
13999;SDS011;7075;53.574;10.054;2023-01-10T10:58:12;710.70;;;665.88;;
13999;SDS011;7075;53.574;10.054;2023-01-10T11:00:39;707.70;;;663.65;;
13999;SDS011;7075;53.574;10.054;2023-01-10T11:03:13;717.53;;;672.10;;
13999;SDS011;7075;53.574;10.054;2023-01-10T11:06:03;713.20;;;667.92;;
13999;SDS011;7075;53.574;10.054;2023-01-10T11:08:31;716.83;;;671.43;;
13999;SDS011;7075;53.574;10.054;2023-01-10T11:11:09;715.00;;;670.08;;
13999;SDS011;7075;53.574;10.054;2023-01-10T11:13:55;711.50;;;666.97;;
13999;SDS011;7075;53.574;10.054;2023-01-10T11:19:30;702.22;;;658.05;;
13999;SDS011;7075;53.574;10.054;2023-01-10T11:26:54;718.38;;;673.08;;
13999;SDS011;7075;53.574;10.054;2023-01-10T11:29:24;700.65;;;656.50;;
13999;SDS011;7075;53.574;10.054;2023-01-10T11:31:53;691.05;;;648.40;;
13999;SDS011;7075;53.574;10.054;2023-01-10T11:34:24;688.22;;;644.58;;
13999;SDS011;7075;53.574;10.054;2023-01-10T11:36:58;684.67;;;642.15;;
13999;SDS011;7075;53.574;10.054;2023-01-10T11:39:26;671.27;;;629.77;;
13999;SDS011;7075;53.574;10.054;2023-01-10T11:41:53;680.83;;;638.03;;
13999;SDS011;7075;53.574;10.054;2023-01-10T11:46:52;658.92;;;618.13;;
13999;SDS011;7075;53.574;10.054;2023-01-10T11:49:44;671.15;;;629.55;;
13999;SDS011;7075;53.574;10.054;2023-01-10T11:52:20;700.42;;;656.47;;
13999;SDS011;7075;53.574;10.054;2023-01-10T11:54:48;687.40;;;644.72;;
13999;SDS011;7075;53.574;10.054;2023-01-10T11:57:18;700.28;;;656.72;;
13999;SDS011;7075;53.574;10.054;2023-01-10T11:59:52;694.42;;;651.90;;
13999;SDS011;7075;53.574;10.054;2023-01-10T12:02:44;734.17;;;688.17;;
13999;SDS011;7075;53.574;10.054;2023-01-10T12:05:19;770.90;;;721.15;;
13999;SDS011;7075;53.574;10.054;2023-01-10T12:10:24;710.85;;;666.20;;
13999;SDS011;7075;53.574;10.054;2023-01-10T12:12:56;720.95;;;675.63;;
13999;SDS011;7075;53.574;10.054;2023-01-10T12:17:52;695.22;;;651.97;;
13999;SDS011;7075;53.574;10.054;2023-01-10T12:20:19;712.33;;;667.30;;
13999;SDS011;7075;53.574;10.054;2023-01-10T12:22:51;699.92;;;656.28;;
13999;SDS011;7075;53.574;10.054;2023-01-10T12:25:29;674.75;;;632.88;;
13999;SDS011;7075;53.574;10.054;2023-01-10T12:28:00;663.17;;;621.80;;
13999;SDS011;7075;53.574;10.054;2023-01-10T12:33:02;669.25;;;628.45;;
13999;SDS011;7075;53.574;10.054;2023-01-10T12:35:41;657.25;;;616.72;;
13999;SDS011;7075;53.574;10.054;2023-01-10T12:38:35;699.37;;;655.13;;
13999;SDS011;7075;53.574;10.054;2023-01-10T12:41:34;692.45;;;647.80;;
13999;SDS011;7075;53.574;10.054;2023-01-10T12:44:28;673.70;;;632.20;;
13999;SDS011;7075;53.574;10.054;2023-01-10T12:50:20;687.05;;;643.67;;
13999;SDS011;7075;53.574;10.054;2023-01-10T12:55:43;663.03;;;621.00;;
13999;SDS011;7075;53.574;10.054;2023-01-10T12:58:16;666.78;;;625.33;;
13999;SDS011;7075;53.574;10.054;2023-01-10T13:00:47;686.22;;;643.00;;
13999;SDS011;7075;53.574;10.054;2023-01-10T13:03:20;670.17;;;628.20;;
13999;SDS011;7075;53.574;10.054;2023-01-10T13:05:52;667.33;;;626.00;;
13999;SDS011;7075;53.574;10.054;2023-01-10T13:08:22;659.73;;;619.17;;
13999;SDS011;7075;53.574;10.054;2023-01-10T13:10:56;663.13;;;622.25;;
13999;SDS011;7075;53.574;10.054;2023-01-10T13:13:36;658.58;;;617.70;;
13999;SDS011;7075;53.574;10.054;2023-01-10T13:16:23;670.10;;;628.88;;
13999;SDS011;7075;53.574;10.054;2023-01-10T13:18:59;654.03;;;613.97;;
13999;SDS011;7075;53.574;10.054;2023-01-10T13:21:26;656.05;;;615.55;;
13999;SDS011;7075;53.574;10.054;2023-01-10T13:23:52;640.97;;;601.60;;
13999;SDS011;7075;53.574;10.054;2023-01-10T13:29:19;669.65;;;628.17;;
13999;SDS011;7075;53.574;10.054;2023-01-10T13:31:46;639.75;;;600.63;;
13999;SDS011;7075;53.574;10.054;2023-01-10T13:34:15;636.65;;;598.40;;
13999;SDS011;7075;53.574;10.054;2023-01-10T13:36:49;637.28;;;599.10;;
13999;SDS011;7075;53.574;10.054;2023-01-10T13:39:39;637.85;;;598.85;;
13999;SDS011;7075;53.574;10.054;2023-01-10T13:42:23;649.75;;;610.00;;
13999;SDS011;7075;53.574;10.054;2023-01-10T13:45:16;640.63;;;602.28;;
13999;SDS011;7075;53.574;10.054;2023-01-10T13:48:02;675.22;;;633.30;;
13999;SDS011;7075;53.574;10.054;2023-01-10T13:55:49;675.10;;;633.28;;
13999;SDS011;7075;53.574;10.054;2023-01-10T14:04:33;636.17;;;597.92;;
13999;SDS011;7075;53.574;10.054;2023-01-10T14:09:43;634.38;;;595.88;;
13999;SDS011;7075;53.574;10.054;2023-01-10T14:12:21;631.15;;;593.65;;
13999;SDS011;7075;53.574;10.054;2023-01-10T14:15:07;613.78;;;577.58;;
13999;SDS011;7075;53.574;10.054;2023-01-10T14:18:06;590.72;;;556.53;;
13999;SDS011;7075;53.574;10.054;2023-01-10T14:20:56;584.30;;;550.80;;
13999;SDS011;7075;53.574;10.054;2023-01-10T14:23:28;595.57;;;561.03;;
13999;SDS011;7075;53.574;10.054;2023-01-10T14:25:58;590.72;;;557.17;;
13999;SDS011;7075;53.574;10.054;2023-01-10T14:28:26;569.60;;;537.10;;
13999;SDS011;7075;53.574;10.054;2023-01-10T14:31:01;585.67;;;552.07;;
13999;SDS011;7075;53.574;10.054;2023-01-10T14:33:27;584.60;;;551.47;;
13999;SDS011;7075;53.574;10.054;2023-01-10T14:35:56;589.03;;;555.33;;
13999;SDS011;7075;53.574;10.054;2023-01-10T14:38:26;600.90;;;566.25;;
13999;SDS011;7075;53.574;10.054;2023-01-10T14:40:56;581.72;;;548.03;;
13999;SDS011;7075;53.574;10.054;2023-01-10T14:43:38;600.67;;;565.58;;
13999;SDS011;7075;53.574;10.054;2023-01-10T14:46:16;584.13;;;550.17;;
13999;SDS011;7075;53.574;10.054;2023-01-10T14:48:50;603.42;;;568.00;;
13999;SDS011;7075;53.574;10.054;2023-01-10T14:51:25;604.43;;;569.17;;
13999;SDS011;7075;53.574;10.054;2023-01-10T14:53:55;589.42;;;555.17;;
13999;SDS011;7075;53.574;10.054;2023-01-10T14:56:36;600.22;;;565.38;;
13999;SDS011;7075;53.574;10.054;2023-01-10T15:01:59;602.37;;;567.40;;
13999;SDS011;7075;53.574;10.054;2023-01-10T15:04:31;599.77;;;564.20;;
13999;SDS011;7075;53.574;10.054;2023-01-10T15:07:08;586.10;;;552.00;;
13999;SDS011;7075;53.574;10.054;2023-01-10T15:09:36;628.65;;;591.45;;
13999;SDS011;7075;53.574;10.054;2023-01-10T15:12:04;605.10;;;569.17;;
13999;SDS011;7075;53.574;10.054;2023-01-10T15:14:35;603.03;;;567.88;;
13999;SDS011;7075;53.574;10.054;2023-01-10T15:17:02;616.22;;;579.20;;
13999;SDS011;7075;53.574;10.054;2023-01-10T15:19:33;622.25;;;585.63;;
13999;SDS011;7075;53.574;10.054;2023-01-10T15:22:02;633.20;;;595.15;;
13999;SDS011;7075;53.574;10.054;2023-01-10T15:24:41;610.05;;;573.72;;
13999;SDS011;7075;53.574;10.054;2023-01-10T15:27:11;611.78;;;575.30;;
13999;SDS011;7075;53.574;10.054;2023-01-10T15:29:39;610.40;;;574.47;;
13999;SDS011;7075;53.574;10.054;2023-01-10T15:32:13;611.47;;;575.30;;
13999;SDS011;7075;53.574;10.054;2023-01-10T15:34:54;612.85;;;576.65;;
13999;SDS011;7075;53.574;10.054;2023-01-10T15:37:23;615.53;;;579.08;;
13999;SDS011;7075;53.574;10.054;2023-01-10T15:39:54;610.90;;;574.90;;
13999;SDS011;7075;53.574;10.054;2023-01-10T15:42:21;584.47;;;550.65;;
13999;SDS011;7075;53.574;10.054;2023-01-10T15:44:49;605.03;;;569.63;;
13999;SDS011;7075;53.574;10.054;2023-01-10T15:47:32;597.88;;;562.95;;